sensor_id;sensor_type;location;lat;lon;timestamp;temperature;humidity
30379;DHT22;17168;49.164;9.060;2022-12-11T00:00:45;1.60;92.00
30379;DHT22;17168;49.164;9.060;2022-12-11T00:03:16;1.70;92.10
30379;DHT22;17168;49.164;9.060;2022-12-11T00:05:48;1.70;92.00
30379;DHT22;17168;49.164;9.060;2022-12-11T00:08:20;1.70;92.10
30379;DHT22;17168;49.164;9.060;2022-12-11T00:10:53;1.80;92.10
30379;DHT22;17168;49.164;9.060;2022-12-11T00:13:24;1.80;92.20
30379;DHT22;17168;49.164;9.060;2022-12-11T00:15:56;1.80;92.20
30379;DHT22;17168;49.164;9.060;2022-12-11T00:18:28;1.80;92.20
30379;DHT22;17168;49.164;9.060;2022-12-11T00:21:00;1.80;92.30
30379;DHT22;17168;49.164;9.060;2022-12-11T00:23:33;1.70;92.40
30379;DHT22;17168;49.164;9.060;2022-12-11T00:26:06;1.70;92.70
30379;DHT22;17168;49.164;9.060;2022-12-11T00:28:38;1.70;92.80
30379;DHT22;17168;49.164;9.060;2022-12-11T00:31:11;1.60;93.00
30379;DHT22;17168;49.164;9.060;2022-12-11T00:33:44;1.60;93.20
30379;DHT22;17168;49.164;9.060;2022-12-11T00:36:17;1.60;93.30
30379;DHT22;17168;49.164;9.060;2022-12-11T00:38:49;1.60;93.40
30379;DHT22;17168;49.164;9.060;2022-12-11T00:41:22;1.70;93.40
30379;DHT22;17168;49.164;9.060;2022-12-11T00:43:53;1.70;93.50
30379;DHT22;17168;49.164;9.060;2022-12-11T00:46:25;1.70;93.50
30379;DHT22;17168;49.164;9.060;2022-12-11T00:48:57;1.70;93.50
30379;DHT22;17168;49.164;9.060;2022-12-11T00:51:29;1.70;93.50
30379;DHT22;17168;49.164;9.060;2022-12-11T00:54:00;1.70;93.50
30379;DHT22;17168;49.164;9.060;2022-12-11T00:56:34;1.80;93.50
30379;DHT22;17168;49.164;9.060;2022-12-11T00:59:06;1.80;93.40
30379;DHT22;17168;49.164;9.060;2022-12-11T01:01:38;1.80;93.40
30379;DHT22;17168;49.164;9.060;2022-12-11T01:04:09;1.80;93.30
30379;DHT22;17168;49.164;9.060;2022-12-11T01:06:41;1.80;93.30
30379;DHT22;17168;49.164;9.060;2022-12-11T01:09:12;1.80;93.20
30379;DHT22;17168;49.164;9.060;2022-12-11T01:12:04;1.80;93.10
30379;DHT22;17168;49.164;9.060;2022-12-11T01:14:36;1.80;93.00
30379;DHT22;17168;49.164;9.060;2022-12-11T01:17:08;1.70;92.80
30379;DHT22;17168;49.164;9.060;2022-12-11T01:19:39;1.70;92.70
30379;DHT22;17168;49.164;9.060;2022-12-11T01:22:11;1.70;92.70
30379;DHT22;17168;49.164;9.060;2022-12-11T01:24:43;1.70;92.70
30379;DHT22;17168;49.164;9.060;2022-12-11T01:27:16;1.70;92.70
30379;DHT22;17168;49.164;9.060;2022-12-11T01:29:47;1.70;92.70
30379;DHT22;17168;49.164;9.060;2022-12-11T01:32:20;1.70;92.70
30379;DHT22;17168;49.164;9.060;2022-12-11T01:34:51;1.70;92.70
30379;DHT22;17168;49.164;9.060;2022-12-11T01:37:23;1.70;92.70
30379;DHT22;17168;49.164;9.060;2022-12-11T01:39:55;1.70;92.90
30379;DHT22;17168;49.164;9.060;2022-12-11T01:42:28;1.60;93.00
30379;DHT22;17168;49.164;9.060;2022-12-11T01:48:02;1.50;93.50
30379;DHT22;17168;49.164;9.060;2022-12-11T01:50:37;1.50;93.40
30379;DHT22;17168;49.164;9.060;2022-12-11T01:53:09;1.50;93.60
30379;DHT22;17168;49.164;9.060;2022-12-11T01:55:43;1.40;93.70
30379;DHT22;17168;49.164;9.060;2022-12-11T01:58:16;1.40;94.10
30379;DHT22;17168;49.164;9.060;2022-12-11T02:00:48;1.40;94.00
30379;DHT22;17168;49.164;9.060;2022-12-11T02:03:21;1.30;94.10
30379;DHT22;17168;49.164;9.060;2022-12-11T02:05:53;1.30;94.30
30379;DHT22;17168;49.164;9.060;2022-12-11T02:08:25;1.30;94.50
30379;DHT22;17168;49.164;9.060;2022-12-11T02:11:00;1.30;94.80
30379;DHT22;17168;49.164;9.060;2022-12-11T02:13:36;1.20;95.20
30379;DHT22;17168;49.164;9.060;2022-12-11T02:16:13;1.20;95.10
30379;DHT22;17168;49.164;9.060;2022-12-11T02:18:47;1.20;95.20
30379;DHT22;17168;49.164;9.060;2022-12-11T02:21:22;1.30;95.60
30379;DHT22;17168;49.164;9.060;2022-12-11T02:27:02;1.20;95.60
30379;DHT22;17168;49.164;9.060;2022-12-11T02:29:41;1.20;95.80
30379;DHT22;17168;49.164;9.060;2022-12-11T02:32:17;1.20;96.00
30379;DHT22;17168;49.164;9.060;2022-12-11T02:34:51;1.20;96.20
30379;DHT22;17168;49.164;9.060;2022-12-11T02:37:25;1.10;96.30
30379;DHT22;17168;49.164;9.060;2022-12-11T02:39:58;1.10;96.60
30379;DHT22;17168;49.164;9.060;2022-12-11T02:42:30;1.10;96.90
30379;DHT22;17168;49.164;9.060;2022-12-11T02:45:05;1.20;97.20
30379;DHT22;17168;49.164;9.060;2022-12-11T02:47:38;1.10;97.30
30379;DHT22;17168;49.164;9.060;2022-12-11T02:50:10;1.20;97.50
30379;DHT22;17168;49.164;9.060;2022-12-11T02:52:44;1.10;97.70
30379;DHT22;17168;49.164;9.060;2022-12-11T02:55:17;1.10;97.80
30379;DHT22;17168;49.164;9.060;2022-12-11T02:57:50;1.10;98.10
30379;DHT22;17168;49.164;9.060;2022-12-11T03:00:24;1.20;98.00
30379;DHT22;17168;49.164;9.060;2022-12-11T03:02:56;1.20;98.00
30379;DHT22;17168;49.164;9.060;2022-12-11T03:05:28;1.20;98.10
30379;DHT22;17168;49.164;9.060;2022-12-11T03:07:59;1.20;98.20
30379;DHT22;17168;49.164;9.060;2022-12-11T03:10:32;1.20;98.40
30379;DHT22;17168;49.164;9.060;2022-12-11T03:13:03;1.20;98.60
30379;DHT22;17168;49.164;9.060;2022-12-11T03:15:38;1.20;98.80
30379;DHT22;17168;49.164;9.060;2022-12-11T03:18:12;1.20;99.30
30379;DHT22;17168;49.164;9.060;2022-12-11T03:20:46;1.20;99.40
30379;DHT22;17168;49.164;9.060;2022-12-11T03:23:21;1.20;99.50
30379;DHT22;17168;49.164;9.060;2022-12-11T03:25:55;1.20;99.60
30379;DHT22;17168;49.164;9.060;2022-12-11T03:28:28;1.20;99.60
30379;DHT22;17168;49.164;9.060;2022-12-11T03:31:02;1.20;99.60
30379;DHT22;17168;49.164;9.060;2022-12-11T03:33:36;1.20;99.60
30379;DHT22;17168;49.164;9.060;2022-12-11T03:36:10;1.30;99.60
30379;DHT22;17168;49.164;9.060;2022-12-11T03:38:45;1.30;99.60
30379;DHT22;17168;49.164;9.060;2022-12-11T03:41:21;1.30;99.60
30379;DHT22;17168;49.164;9.060;2022-12-11T03:43:56;1.40;99.60
30379;DHT22;17168;49.164;9.060;2022-12-11T03:46:30;1.40;99.60
30379;DHT22;17168;49.164;9.060;2022-12-11T03:49:04;1.40;99.50
30379;DHT22;17168;49.164;9.060;2022-12-11T03:51:39;1.50;99.40
30379;DHT22;17168;49.164;9.060;2022-12-11T03:54:12;1.50;99.30
30379;DHT22;17168;49.164;9.060;2022-12-11T03:56:44;1.50;99.30
30379;DHT22;17168;49.164;9.060;2022-12-11T03:59:17;1.50;99.30
30379;DHT22;17168;49.164;9.060;2022-12-11T04:01:51;1.50;99.40
30379;DHT22;17168;49.164;9.060;2022-12-11T04:04:24;1.60;99.40
30379;DHT22;17168;49.164;9.060;2022-12-11T04:06:56;1.60;99.40
30379;DHT22;17168;49.164;9.060;2022-12-11T04:09:28;1.60;99.30
30379;DHT22;17168;49.164;9.060;2022-12-11T04:11:59;1.70;99.30
30379;DHT22;17168;49.164;9.060;2022-12-11T04:14:31;1.60;99.20
30379;DHT22;17168;49.164;9.060;2022-12-11T04:17:23;1.60;99.20
30379;DHT22;17168;49.164;9.060;2022-12-11T04:20:13;1.60;99.30
30379;DHT22;17168;49.164;9.060;2022-12-11T04:23:04;1.50;99.40
30379;DHT22;17168;49.164;9.060;2022-12-11T04:26:02;1.50;99.60
30379;DHT22;17168;49.164;9.060;2022-12-11T04:28:34;1.40;99.60
30379;DHT22;17168;49.164;9.060;2022-12-11T04:31:06;1.50;99.80
30379;DHT22;17168;49.164;9.060;2022-12-11T04:33:42;1.50;99.80
30379;DHT22;17168;49.164;9.060;2022-12-11T04:36:14;1.40;99.70
30379;DHT22;17168;49.164;9.060;2022-12-11T04:38:46;1.40;99.80
30379;DHT22;17168;49.164;9.060;2022-12-11T04:41:18;1.40;99.90
30379;DHT22;17168;49.164;9.060;2022-12-11T04:43:49;1.30;99.90
30379;DHT22;17168;49.164;9.060;2022-12-11T04:46:22;1.30;99.90
30379;DHT22;17168;49.164;9.060;2022-12-11T04:48:55;1.30;99.90
30379;DHT22;17168;49.164;9.060;2022-12-11T04:51:28;1.30;99.90
30379;DHT22;17168;49.164;9.060;2022-12-11T04:54:00;1.30;99.90
30379;DHT22;17168;49.164;9.060;2022-12-11T04:56:31;1.40;99.90
30379;DHT22;17168;49.164;9.060;2022-12-11T04:59:03;1.40;99.90
30379;DHT22;17168;49.164;9.060;2022-12-11T05:01:35;1.40;99.90
30379;DHT22;17168;49.164;9.060;2022-12-11T05:04:08;1.40;99.90
30379;DHT22;17168;49.164;9.060;2022-12-11T05:06:39;1.40;99.90
30379;DHT22;17168;49.164;9.060;2022-12-11T05:09:11;1.40;99.90
30379;DHT22;17168;49.164;9.060;2022-12-11T05:11:43;1.40;99.90
30379;DHT22;17168;49.164;9.060;2022-12-11T05:14:15;1.40;99.90
30379;DHT22;17168;49.164;9.060;2022-12-11T05:16:48;1.40;99.90
30379;DHT22;17168;49.164;9.060;2022-12-11T05:19:21;1.40;99.90
30379;DHT22;17168;49.164;9.060;2022-12-11T05:21:53;1.40;99.90
30379;DHT22;17168;49.164;9.060;2022-12-11T05:24:24;1.40;99.90
30379;DHT22;17168;49.164;9.060;2022-12-11T05:26:56;1.30;99.90
30379;DHT22;17168;49.164;9.060;2022-12-11T05:29:28;1.30;99.90
30379;DHT22;17168;49.164;9.060;2022-12-11T05:31:59;1.30;99.90
30379;DHT22;17168;49.164;9.060;2022-12-11T05:34:32;1.30;99.90
30379;DHT22;17168;49.164;9.060;2022-12-11T05:37:04;1.30;99.90
30379;DHT22;17168;49.164;9.060;2022-12-11T05:39:36;1.30;99.90
30379;DHT22;17168;49.164;9.060;2022-12-11T05:42:08;1.30;99.90
30379;DHT22;17168;49.164;9.060;2022-12-11T05:44:39;1.30;99.90
30379;DHT22;17168;49.164;9.060;2022-12-11T05:47:11;1.30;99.90
30379;DHT22;17168;49.164;9.060;2022-12-11T05:49:44;1.30;99.90
30379;DHT22;17168;49.164;9.060;2022-12-11T05:52:15;1.30;99.90
30379;DHT22;17168;49.164;9.060;2022-12-11T05:54:47;1.20;99.90
30379;DHT22;17168;49.164;9.060;2022-12-11T05:57:19;1.20;99.90
30379;DHT22;17168;49.164;9.060;2022-12-11T05:59:51;1.20;99.90
30379;DHT22;17168;49.164;9.060;2022-12-11T06:02:22;1.20;99.90
30379;DHT22;17168;49.164;9.060;2022-12-11T06:04:55;1.10;99.90
30379;DHT22;17168;49.164;9.060;2022-12-11T06:07:27;1.10;99.90
30379;DHT22;17168;49.164;9.060;2022-12-11T06:09:59;1.10;99.90
30379;DHT22;17168;49.164;9.060;2022-12-11T06:12:30;1.00;99.90
30379;DHT22;17168;49.164;9.060;2022-12-11T06:15:02;1.00;99.90
30379;DHT22;17168;49.164;9.060;2022-12-11T06:17:35;1.00;99.90
30379;DHT22;17168;49.164;9.060;2022-12-11T06:20:09;1.00;99.90
30379;DHT22;17168;49.164;9.060;2022-12-11T06:22:40;1.00;99.90
30379;DHT22;17168;49.164;9.060;2022-12-11T06:25:12;1.10;99.90
30379;DHT22;17168;49.164;9.060;2022-12-11T06:27:44;1.10;99.90
30379;DHT22;17168;49.164;9.060;2022-12-11T06:30:16;1.20;99.90
30379;DHT22;17168;49.164;9.060;2022-12-11T06:32:47;1.20;99.90
30379;DHT22;17168;49.164;9.060;2022-12-11T06:35:20;1.20;99.90
30379;DHT22;17168;49.164;9.060;2022-12-11T06:37:52;1.20;99.90
30379;DHT22;17168;49.164;9.060;2022-12-11T06:40:24;1.20;99.90
30379;DHT22;17168;49.164;9.060;2022-12-11T06:42:55;1.20;99.90
30379;DHT22;17168;49.164;9.060;2022-12-11T06:45:27;1.20;99.90
30379;DHT22;17168;49.164;9.060;2022-12-11T06:47:59;1.20;99.90
30379;DHT22;17168;49.164;9.060;2022-12-11T06:50:32;1.20;99.90
30379;DHT22;17168;49.164;9.060;2022-12-11T06:53:03;1.20;99.90
30379;DHT22;17168;49.164;9.060;2022-12-11T06:55:35;1.20;99.90
30379;DHT22;17168;49.164;9.060;2022-12-11T06:58:07;1.20;99.90
30379;DHT22;17168;49.164;9.060;2022-12-11T07:00:39;1.20;99.90
30379;DHT22;17168;49.164;9.060;2022-12-11T07:03:11;1.20;99.90
30379;DHT22;17168;49.164;9.060;2022-12-11T07:05:45;1.10;99.90
30379;DHT22;17168;49.164;9.060;2022-12-11T07:08:17;1.10;99.90
30379;DHT22;17168;49.164;9.060;2022-12-11T07:10:48;1.10;99.90
30379;DHT22;17168;49.164;9.060;2022-12-11T07:13:20;1.10;99.90
30379;DHT22;17168;49.164;9.060;2022-12-11T07:15:52;1.20;99.90
30379;DHT22;17168;49.164;9.060;2022-12-11T07:18:23;1.20;99.90
30379;DHT22;17168;49.164;9.060;2022-12-11T07:20:57;1.20;99.90
30379;DHT22;17168;49.164;9.060;2022-12-11T07:23:32;1.10;99.90
30379;DHT22;17168;49.164;9.060;2022-12-11T07:26:04;1.10;99.90
30379;DHT22;17168;49.164;9.060;2022-12-11T07:28:36;1.10;99.90
30379;DHT22;17168;49.164;9.060;2022-12-11T07:31:08;1.10;99.90
30379;DHT22;17168;49.164;9.060;2022-12-11T07:33:40;1.00;99.80
30379;DHT22;17168;49.164;9.060;2022-12-11T07:36:14;1.00;99.80
30379;DHT22;17168;49.164;9.060;2022-12-11T07:38:45;1.00;99.80
30379;DHT22;17168;49.164;9.060;2022-12-11T07:41:17;1.00;99.80
30379;DHT22;17168;49.164;9.060;2022-12-11T07:43:49;1.00;99.80
30379;DHT22;17168;49.164;9.060;2022-12-11T07:46:21;0.90;99.70
30379;DHT22;17168;49.164;9.060;2022-12-11T07:48:53;0.90;99.70
30379;DHT22;17168;49.164;9.060;2022-12-11T07:51:27;1.00;99.60
30379;DHT22;17168;49.164;9.060;2022-12-11T07:53:59;1.00;99.40
30379;DHT22;17168;49.164;9.060;2022-12-11T07:56:32;1.10;99.20
30379;DHT22;17168;49.164;9.060;2022-12-11T07:59:04;1.10;99.10
30379;DHT22;17168;49.164;9.060;2022-12-11T08:01:36;1.10;98.90
30379;DHT22;17168;49.164;9.060;2022-12-11T08:04:09;1.10;98.90
30379;DHT22;17168;49.164;9.060;2022-12-11T08:06:43;1.10;98.90
30379;DHT22;17168;49.164;9.060;2022-12-11T08:09:14;1.10;99.00
30379;DHT22;17168;49.164;9.060;2022-12-11T08:11:51;1.20;99.20
30379;DHT22;17168;49.164;9.060;2022-12-11T08:14:23;1.20;99.30
30379;DHT22;17168;49.164;9.060;2022-12-11T08:16:55;1.20;99.30
30379;DHT22;17168;49.164;9.060;2022-12-11T08:19:28;1.30;99.40
30379;DHT22;17168;49.164;9.060;2022-12-11T08:22:01;1.20;99.40
30379;DHT22;17168;49.164;9.060;2022-12-11T08:24:32;1.20;99.50
30379;DHT22;17168;49.164;9.060;2022-12-11T08:27:04;1.20;99.70
30379;DHT22;17168;49.164;9.060;2022-12-11T08:29:36;1.20;99.80
30379;DHT22;17168;49.164;9.060;2022-12-11T08:32:07;1.20;99.90
30379;DHT22;17168;49.164;9.060;2022-12-11T08:34:43;1.20;99.90
30379;DHT22;17168;49.164;9.060;2022-12-11T08:37:16;1.20;99.90
30379;DHT22;17168;49.164;9.060;2022-12-11T08:39:47;1.20;99.90
30379;DHT22;17168;49.164;9.060;2022-12-11T08:42:19;1.20;99.90
30379;DHT22;17168;49.164;9.060;2022-12-11T08:44:50;1.10;99.90
30379;DHT22;17168;49.164;9.060;2022-12-11T08:47:22;1.10;99.90
30379;DHT22;17168;49.164;9.060;2022-12-11T08:49:54;1.10;99.90
30379;DHT22;17168;49.164;9.060;2022-12-11T08:52:27;1.00;99.90
30379;DHT22;17168;49.164;9.060;2022-12-11T08:54:58;1.00;99.90
30379;DHT22;17168;49.164;9.060;2022-12-11T08:57:30;0.90;99.90
30379;DHT22;17168;49.164;9.060;2022-12-11T09:00:02;0.90;99.90
30379;DHT22;17168;49.164;9.060;2022-12-11T09:02:34;0.80;99.90
30379;DHT22;17168;49.164;9.060;2022-12-11T09:05:06;0.80;99.90
30379;DHT22;17168;49.164;9.060;2022-12-11T09:07:41;0.70;99.90
30379;DHT22;17168;49.164;9.060;2022-12-11T09:10:13;0.60;99.90
30379;DHT22;17168;49.164;9.060;2022-12-11T09:12:44;0.60;99.90
30379;DHT22;17168;49.164;9.060;2022-12-11T09:15:16;0.70;99.90
30379;DHT22;17168;49.164;9.060;2022-12-11T09:17:48;0.70;99.90
30379;DHT22;17168;49.164;9.060;2022-12-11T09:20:20;0.60;99.90
30379;DHT22;17168;49.164;9.060;2022-12-11T09:22:53;0.60;99.90
30379;DHT22;17168;49.164;9.060;2022-12-11T09:25:24;0.60;99.90
30379;DHT22;17168;49.164;9.060;2022-12-11T09:27:56;0.60;99.90
30379;DHT22;17168;49.164;9.060;2022-12-11T09:30:28;0.60;99.90
30379;DHT22;17168;49.164;9.060;2022-12-11T09:32:59;0.70;99.90
30379;DHT22;17168;49.164;9.060;2022-12-11T09:35:31;0.70;99.90
30379;DHT22;17168;49.164;9.060;2022-12-11T09:38:04;0.80;99.90
30379;DHT22;17168;49.164;9.060;2022-12-11T09:40:38;0.80;99.90
30379;DHT22;17168;49.164;9.060;2022-12-11T09:43:14;0.80;99.90
30379;DHT22;17168;49.164;9.060;2022-12-11T09:45:48;0.80;99.90
30379;DHT22;17168;49.164;9.060;2022-12-11T09:48:21;0.80;99.90
30379;DHT22;17168;49.164;9.060;2022-12-11T09:50:54;0.80;99.90
30379;DHT22;17168;49.164;9.060;2022-12-11T09:53:28;0.80;99.90
30379;DHT22;17168;49.164;9.060;2022-12-11T09:56:06;0.80;99.90
30379;DHT22;17168;49.164;9.060;2022-12-11T09:58:45;0.80;99.90
30379;DHT22;17168;49.164;9.060;2022-12-11T10:01:20;0.80;99.90
30379;DHT22;17168;49.164;9.060;2022-12-11T10:03:56;0.80;99.90
30379;DHT22;17168;49.164;9.060;2022-12-11T10:06:32;0.90;99.90
30379;DHT22;17168;49.164;9.060;2022-12-11T10:09:10;0.90;99.90
30379;DHT22;17168;49.164;9.060;2022-12-11T10:11:48;1.00;99.90
30379;DHT22;17168;49.164;9.060;2022-12-11T10:14:30;1.10;99.90
30379;DHT22;17168;49.164;9.060;2022-12-11T10:17:08;1.20;99.90
30379;DHT22;17168;49.164;9.060;2022-12-11T10:19:41;1.30;99.90
30379;DHT22;17168;49.164;9.060;2022-12-11T10:22:13;1.30;99.90
30379;DHT22;17168;49.164;9.060;2022-12-11T10:24:51;1.30;99.90
30379;DHT22;17168;49.164;9.060;2022-12-11T10:27:44;1.30;99.90
30379;DHT22;17168;49.164;9.060;2022-12-11T10:30:17;1.40;99.90
30379;DHT22;17168;49.164;9.060;2022-12-11T10:32:53;1.40;99.90
30379;DHT22;17168;49.164;9.060;2022-12-11T10:35:30;1.40;99.90
30379;DHT22;17168;49.164;9.060;2022-12-11T10:38:11;1.30;99.90
30379;DHT22;17168;49.164;9.060;2022-12-11T10:40:45;1.30;99.90
30379;DHT22;17168;49.164;9.060;2022-12-11T10:43:17;1.30;99.90
30379;DHT22;17168;49.164;9.060;2022-12-11T10:45:50;1.40;99.90
30379;DHT22;17168;49.164;9.060;2022-12-11T10:48:22;1.40;99.90
30379;DHT22;17168;49.164;9.060;2022-12-11T10:50:58;1.40;99.90
30379;DHT22;17168;49.164;9.060;2022-12-11T10:53:30;1.40;99.90
30379;DHT22;17168;49.164;9.060;2022-12-11T10:56:05;1.40;99.90
30379;DHT22;17168;49.164;9.060;2022-12-11T10:58:37;1.40;99.90
30379;DHT22;17168;49.164;9.060;2022-12-11T11:01:12;1.40;99.90
30379;DHT22;17168;49.164;9.060;2022-12-11T11:03:51;1.40;99.90
30379;DHT22;17168;49.164;9.060;2022-12-11T11:06:24;1.40;99.90
30379;DHT22;17168;49.164;9.060;2022-12-11T11:08:57;1.40;99.90
30379;DHT22;17168;49.164;9.060;2022-12-11T11:11:31;1.40;99.90
30379;DHT22;17168;49.164;9.060;2022-12-11T11:14:12;1.50;99.90
30379;DHT22;17168;49.164;9.060;2022-12-11T11:16:44;1.50;99.90
30379;DHT22;17168;49.164;9.060;2022-12-11T11:19:20;1.50;99.90
30379;DHT22;17168;49.164;9.060;2022-12-11T11:21:53;1.60;99.90
30379;DHT22;17168;49.164;9.060;2022-12-11T11:24:26;1.60;99.90
30379;DHT22;17168;49.164;9.060;2022-12-11T11:26:59;1.70;99.90
30379;DHT22;17168;49.164;9.060;2022-12-11T11:29:46;1.80;99.90
30379;DHT22;17168;49.164;9.060;2022-12-11T11:32:25;1.90;99.90
30379;DHT22;17168;49.164;9.060;2022-12-11T11:35:13;1.90;99.90
30379;DHT22;17168;49.164;9.060;2022-12-11T11:37:53;2.00;99.90
30379;DHT22;17168;49.164;9.060;2022-12-11T11:40:27;2.00;99.90
30379;DHT22;17168;49.164;9.060;2022-12-11T11:43:02;2.00;99.90
30379;DHT22;17168;49.164;9.060;2022-12-11T11:45:36;2.10;99.90
30379;DHT22;17168;49.164;9.060;2022-12-11T11:48:23;2.40;99.90
30379;DHT22;17168;49.164;9.060;2022-12-11T11:50:57;2.70;99.90
30379;DHT22;17168;49.164;9.060;2022-12-11T11:56:02;3.50;99.90
30379;DHT22;17168;49.164;9.060;2022-12-11T11:58:40;3.80;99.90
30379;DHT22;17168;49.164;9.060;2022-12-11T12:01:14;4.10;99.90
30379;DHT22;17168;49.164;9.060;2022-12-11T12:03:46;4.40;99.90
30379;DHT22;17168;49.164;9.060;2022-12-11T12:06:22;4.60;99.90
30379;DHT22;17168;49.164;9.060;2022-12-11T12:09:04;4.80;99.90
30379;DHT22;17168;49.164;9.060;2022-12-11T12:11:40;5.10;99.40
30379;DHT22;17168;49.164;9.060;2022-12-11T12:14:18;5.30;98.80
30379;DHT22;17168;49.164;9.060;2022-12-11T12:17:13;5.40;97.90
30379;DHT22;17168;49.164;9.060;2022-12-11T12:19:49;5.40;96.80
30379;DHT22;17168;49.164;9.060;2022-12-11T12:22:27;5.40;96.20
30379;DHT22;17168;49.164;9.060;2022-12-11T12:25:05;5.40;95.40
30379;DHT22;17168;49.164;9.060;2022-12-11T12:27:42;5.50;94.80
30379;DHT22;17168;49.164;9.060;2022-12-11T12:30:25;5.50;94.50
30379;DHT22;17168;49.164;9.060;2022-12-11T12:33:10;5.60;94.30
30379;DHT22;17168;49.164;9.060;2022-12-11T12:35:48;5.50;94.00
30379;DHT22;17168;49.164;9.060;2022-12-11T12:38:22;5.60;93.60
30379;DHT22;17168;49.164;9.060;2022-12-11T12:40:59;5.50;93.40
30379;DHT22;17168;49.164;9.060;2022-12-11T12:43:43;5.50;93.20
30379;DHT22;17168;49.164;9.060;2022-12-11T12:46:22;5.60;93.00
30379;DHT22;17168;49.164;9.060;2022-12-11T12:48:57;5.70;92.90
30379;DHT22;17168;49.164;9.060;2022-12-11T12:51:29;5.70;92.60
30379;DHT22;17168;49.164;9.060;2022-12-11T12:54:01;5.80;92.40
30379;DHT22;17168;49.164;9.060;2022-12-11T12:56:42;5.70;92.10
30379;DHT22;17168;49.164;9.060;2022-12-11T12:59:19;5.70;92.00
30379;DHT22;17168;49.164;9.060;2022-12-11T13:01:53;5.80;92.00
30379;DHT22;17168;49.164;9.060;2022-12-11T13:04:32;5.90;91.80
30379;DHT22;17168;49.164;9.060;2022-12-11T13:07:25;5.90;91.50
30379;DHT22;17168;49.164;9.060;2022-12-11T13:10:02;6.00;91.10
30379;DHT22;17168;49.164;9.060;2022-12-11T13:12:41;6.20;90.90
30379;DHT22;17168;49.164;9.060;2022-12-11T13:15:23;6.40;90.60
30379;DHT22;17168;49.164;9.060;2022-12-11T13:17:56;6.50;90.10
30379;DHT22;17168;49.164;9.060;2022-12-11T13:20:29;6.70;89.50
30379;DHT22;17168;49.164;9.060;2022-12-11T13:23:26;6.70;89.20
30379;DHT22;17168;49.164;9.060;2022-12-11T13:26:00;6.90;89.00
30379;DHT22;17168;49.164;9.060;2022-12-11T13:28:45;7.00;88.10
30379;DHT22;17168;49.164;9.060;2022-12-11T13:31:30;7.10;87.40
30379;DHT22;17168;49.164;9.060;2022-12-11T13:34:14;7.10;85.80
30379;DHT22;17168;49.164;9.060;2022-12-11T13:36:48;6.90;84.40
30379;DHT22;17168;49.164;9.060;2022-12-11T13:39:21;6.70;84.00
30379;DHT22;17168;49.164;9.060;2022-12-11T13:41:55;6.50;83.80
30379;DHT22;17168;49.164;9.060;2022-12-11T13:44:29;6.30;83.60
30379;DHT22;17168;49.164;9.060;2022-12-11T13:47:03;6.00;83.50
30379;DHT22;17168;49.164;9.060;2022-12-11T13:49:37;5.80;83.70
30379;DHT22;17168;49.164;9.060;2022-12-11T13:52:14;5.50;83.80
30379;DHT22;17168;49.164;9.060;2022-12-11T13:54:47;5.40;84.00
30379;DHT22;17168;49.164;9.060;2022-12-11T13:57:21;5.10;84.20
30379;DHT22;17168;49.164;9.060;2022-12-11T13:59:55;5.00;84.50
30379;DHT22;17168;49.164;9.060;2022-12-11T14:02:28;4.80;84.70
30379;DHT22;17168;49.164;9.060;2022-12-11T14:05:04;4.70;85.10
30379;DHT22;17168;49.164;9.060;2022-12-11T14:07:37;4.50;85.30
30379;DHT22;17168;49.164;9.060;2022-12-11T14:10:13;4.40;85.50
30379;DHT22;17168;49.164;9.060;2022-12-11T14:12:46;4.30;85.80
30379;DHT22;17168;49.164;9.060;2022-12-11T14:15:19;4.20;86.10
30379;DHT22;17168;49.164;9.060;2022-12-11T14:17:50;4.10;86.30
30379;DHT22;17168;49.164;9.060;2022-12-11T14:20:24;4.00;86.60
30379;DHT22;17168;49.164;9.060;2022-12-11T14:23:03;3.90;86.80
30379;DHT22;17168;49.164;9.060;2022-12-11T14:25:34;3.80;87.10
30379;DHT22;17168;49.164;9.060;2022-12-11T14:28:12;3.80;87.50
30379;DHT22;17168;49.164;9.060;2022-12-11T14:30:46;3.70;87.70
30379;DHT22;17168;49.164;9.060;2022-12-11T14:33:20;3.70;87.90
30379;DHT22;17168;49.164;9.060;2022-12-11T14:35:54;3.60;88.10
30379;DHT22;17168;49.164;9.060;2022-12-11T14:38:27;3.60;88.30
30379;DHT22;17168;49.164;9.060;2022-12-11T14:41:02;3.50;88.40
30379;DHT22;17168;49.164;9.060;2022-12-11T14:43:35;3.50;88.90
30379;DHT22;17168;49.164;9.060;2022-12-11T14:46:09;3.50;88.70
30379;DHT22;17168;49.164;9.060;2022-12-11T14:48:42;3.40;88.90
30379;DHT22;17168;49.164;9.060;2022-12-11T14:51:16;3.30;89.30
30379;DHT22;17168;49.164;9.060;2022-12-11T14:53:49;3.20;89.60
30379;DHT22;17168;49.164;9.060;2022-12-11T14:56:24;3.20;89.90
30379;DHT22;17168;49.164;9.060;2022-12-11T14:58:57;3.20;90.00
30379;DHT22;17168;49.164;9.060;2022-12-11T15:01:30;3.20;90.10
30379;DHT22;17168;49.164;9.060;2022-12-11T15:04:04;3.20;90.20
30379;DHT22;17168;49.164;9.060;2022-12-11T15:06:43;3.10;90.20
30379;DHT22;17168;49.164;9.060;2022-12-11T15:09:18;3.10;90.40
30379;DHT22;17168;49.164;9.060;2022-12-11T15:11:51;3.10;90.50
30379;DHT22;17168;49.164;9.060;2022-12-11T15:14:24;3.10;90.60
30379;DHT22;17168;49.164;9.060;2022-12-11T15:16:56;3.10;90.60
30379;DHT22;17168;49.164;9.060;2022-12-11T15:19:28;3.10;90.70
30379;DHT22;17168;49.164;9.060;2022-12-11T15:22:02;3.00;90.80
30379;DHT22;17168;49.164;9.060;2022-12-11T15:24:35;3.00;90.80
30379;DHT22;17168;49.164;9.060;2022-12-11T15:27:13;3.00;90.90
30379;DHT22;17168;49.164;9.060;2022-12-11T15:29:46;3.00;91.00
30379;DHT22;17168;49.164;9.060;2022-12-11T15:32:19;3.00;91.00
30379;DHT22;17168;49.164;9.060;2022-12-11T15:34:52;3.00;91.00
30379;DHT22;17168;49.164;9.060;2022-12-11T15:37:26;3.00;91.10
30379;DHT22;17168;49.164;9.060;2022-12-11T15:39:58;3.00;91.20
30379;DHT22;17168;49.164;9.060;2022-12-11T15:42:31;3.00;91.30
30379;DHT22;17168;49.164;9.060;2022-12-11T15:45:05;3.00;91.30
30379;DHT22;17168;49.164;9.060;2022-12-11T15:47:38;2.90;91.40
30379;DHT22;17168;49.164;9.060;2022-12-11T15:50:11;3.00;91.40
30379;DHT22;17168;49.164;9.060;2022-12-11T15:52:47;3.00;91.50
30379;DHT22;17168;49.164;9.060;2022-12-11T15:55:20;2.90;91.50
30379;DHT22;17168;49.164;9.060;2022-12-11T15:57:53;3.00;91.50
30379;DHT22;17168;49.164;9.060;2022-12-11T16:00:25;3.00;91.70
30379;DHT22;17168;49.164;9.060;2022-12-11T16:02:58;3.10;93.10
30379;DHT22;17168;49.164;9.060;2022-12-11T16:05:30;3.30;94.60
30379;DHT22;17168;49.164;9.060;2022-12-11T16:08:03;3.60;95.40
30379;DHT22;17168;49.164;9.060;2022-12-11T16:10:35;4.00;95.70
30379;DHT22;17168;49.164;9.060;2022-12-11T16:13:08;4.20;95.60
30379;DHT22;17168;49.164;9.060;2022-12-11T16:15:41;4.50;95.30
30379;DHT22;17168;49.164;9.060;2022-12-11T16:18:15;4.70;94.80
30379;DHT22;17168;49.164;9.060;2022-12-11T16:20:47;5.00;94.40
30379;DHT22;17168;49.164;9.060;2022-12-11T16:23:20;5.20;93.90
30379;DHT22;17168;49.164;9.060;2022-12-11T16:25:52;5.40;93.30
30379;DHT22;17168;49.164;9.060;2022-12-11T16:28:24;5.60;92.70
30379;DHT22;17168;49.164;9.060;2022-12-11T16:30:55;5.80;92.20
30379;DHT22;17168;49.164;9.060;2022-12-11T16:33:27;6.00;91.70
30379;DHT22;17168;49.164;9.060;2022-12-11T16:35:59;6.20;91.20